createdAt,value
2023-02-24T00:00:09.121Z,10.20
2023-02-24T00:01:09.059Z,10.50
2023-02-24T00:02:09.146Z,10.40
2023-02-24T00:03:09.092Z,10.80
2023-02-24T00:04:09.072Z,11.00
2023-02-24T00:05:09.062Z,10.90
2023-02-24T00:06:09.029Z,10.20
2023-02-24T00:07:09.047Z,10.00
2023-02-24T00:08:09.044Z,10.80
2023-02-24T00:09:09.024Z,10.10
2023-02-24T00:10:09.012Z,10.80
2023-02-24T00:11:08.989Z,10.30
2023-02-24T00:12:09.111Z,10.20
2023-02-24T00:13:09.013Z,10.50
2023-02-24T00:14:08.991Z,9.80
2023-02-24T00:15:08.976Z,11.00
2023-02-24T00:16:08.981Z,10.90
2023-02-24T00:17:09.079Z,10.30
2023-02-24T00:18:08.964Z,10.10
2023-02-24T00:19:08.949Z,10.20
2023-02-24T00:20:08.951Z,10.40
2023-02-24T00:21:08.933Z,10.50
2023-02-24T00:22:08.948Z,10.50
2023-02-24T00:23:08.917Z,10.70
2023-02-24T00:24:08.926Z,11.10
2023-02-24T00:25:08.915Z,10.80
2023-02-24T00:26:08.898Z,10.70
2023-02-24T00:27:08.922Z,10.10
2023-02-24T00:28:08.902Z,9.90
2023-02-24T00:29:08.886Z,11.00
2023-02-24T00:30:08.897Z,10.90
2023-02-24T00:31:09.026Z,11.00
2023-02-24T00:32:08.964Z,10.70
2023-02-24T00:33:08.968Z,11.10
2023-02-24T00:34:08.941Z,10.80
2023-02-24T00:35:08.868Z,10.20
2023-02-24T00:36:08.855Z,9.70
2023-02-24T00:37:08.897Z,10.10
2023-02-24T00:38:08.857Z,11.00
2023-02-24T00:39:08.857Z,10.50
2023-02-24T00:40:08.835Z,10.50
2023-02-24T00:41:08.818Z,10.10
2023-02-24T00:42:08.874Z,11.10
2023-02-24T00:43:08.838Z,10.20
2023-02-24T00:44:08.833Z,10.10
2023-02-24T00:45:08.802Z,10.50
2023-02-24T00:46:08.844Z,10.60
2023-02-24T00:47:08.812Z,10.70
2023-02-24T00:48:08.784Z,11.20
2023-02-24T00:49:08.808Z,11.10
2023-02-24T00:50:08.767Z,10.80
2023-02-24T00:51:08.779Z,11.20
2023-02-24T00:52:08.796Z,11.10
2023-02-24T00:53:08.750Z,11.10
2023-02-24T00:54:08.761Z,11.20
2023-02-24T00:55:08.754Z,11.20
2023-02-24T00:56:08.750Z,11.50
2023-02-24T00:57:08.735Z,11.60
2023-02-24T00:58:08.731Z,11.90
2023-02-24T00:59:08.719Z,11.60
2023-02-24T01:00:08.719Z,11.30
2023-02-24T01:01:08.744Z,12.00
2023-02-24T01:02:08.699Z,11.20
2023-02-24T01:03:08.713Z,11.20
2023-02-24T01:04:08.755Z,11.60
2023-02-24T01:05:08.681Z,11.20
2023-02-24T01:06:08.673Z,11.60
2023-02-24T01:07:08.697Z,11.00
2023-02-24T01:08:08.714Z,10.70
2023-02-24T01:09:08.665Z,11.00
2023-02-24T01:10:08.691Z,11.20
2023-02-24T01:11:08.650Z,11.50
2023-02-24T01:12:08.712Z,11.60
2023-02-24T01:13:08.637Z,11.40
2023-02-24T01:14:08.662Z,12.00
2023-02-24T01:15:08.623Z,11.60
2023-02-24T01:16:08.702Z,11.30
2023-02-24T01:17:08.614Z,11.50
2023-02-24T01:18:08.614Z,10.90
2023-02-24T01:19:08.591Z,10.60
2023-02-24T01:20:08.638Z,11.00
2023-02-24T01:21:08.602Z,11.00
2023-02-24T01:22:08.594Z,10.80
2023-02-24T01:23:08.567Z,11.40
2023-02-24T01:24:08.573Z,10.60
2023-02-24T01:25:08.596Z,11.40
2023-02-24T01:26:08.590Z,11.40
2023-02-24T01:27:08.553Z,10.40
2023-02-24T01:28:08.561Z,11.60
2023-02-24T01:29:08.531Z,11.10
2023-02-24T01:30:08.600Z,11.00
2023-02-24T01:31:08.671Z,11.20
2023-02-24T01:32:08.667Z,11.80
2023-02-24T01:33:08.830Z,11.00
2023-02-24T01:34:08.539Z,11.00
2023-02-24T01:35:08.513Z,11.00
2023-02-24T01:36:08.498Z,10.60
2023-02-24T01:37:08.486Z,10.30
2023-02-24T01:38:08.529Z,11.10
2023-02-24T01:39:08.518Z,10.70
2023-02-24T01:40:08.507Z,11.40
2023-02-24T01:41:08.468Z,10.90
2023-02-24T01:42:08.465Z,11.00
2023-02-24T01:43:08.483Z,10.70
2023-02-24T01:44:08.451Z,11.60
2023-02-24T01:45:08.458Z,11.10
2023-02-24T01:46:08.472Z,10.20
2023-02-24T01:47:08.442Z,10.80
2023-02-24T01:48:08.491Z,11.10
2023-02-24T01:49:08.445Z,10.70
2023-02-24T01:50:08.417Z,10.80
2023-02-24T01:51:08.453Z,10.70
2023-02-24T01:52:08.432Z,11.40
2023-02-24T01:53:08.474Z,10.70
2023-02-24T01:54:08.406Z,11.30
2023-02-24T01:55:08.441Z,11.10
2023-02-24T01:56:08.394Z,11.00
2023-02-24T01:57:08.368Z,11.00
2023-02-24T01:58:08.385Z,10.80
2023-02-24T01:59:08.401Z,10.60
2023-02-24T02:00:08.366Z,10.80
2023-02-24T02:01:08.415Z,10.50
2023-02-24T02:02:08.485Z,10.60
2023-02-24T02:03:08.412Z,10.20
2023-02-24T02:04:08.344Z,10.80
2023-02-24T02:05:08.344Z,10.20
2023-02-24T02:06:08.358Z,10.10
2023-02-24T02:07:08.343Z,10.90
2023-02-24T02:08:08.305Z,10.10
2023-02-24T02:09:08.302Z,10.20
2023-02-24T02:10:08.305Z,10.20
2023-02-24T02:11:08.296Z,10.00
2023-02-24T02:12:08.286Z,10.30
2023-02-24T02:13:08.313Z,10.30
2023-02-24T02:14:08.277Z,10.00
2023-02-24T02:15:08.281Z,10.20
2023-02-24T02:16:08.293Z,10.70
2023-02-24T02:17:08.275Z,11.00
2023-02-24T02:18:08.271Z,10.70
2023-02-24T02:19:08.272Z,11.00
2023-02-24T02:20:08.239Z,10.10
2023-02-24T02:21:08.229Z,11.10
2023-02-24T02:22:08.237Z,9.90
2023-02-24T02:23:08.239Z,10.90
2023-02-24T02:24:08.271Z,10.80
2023-02-24T02:25:08.206Z,10.90
2023-02-24T02:26:08.225Z,10.60
2023-02-24T02:27:08.195Z,9.60
2023-02-24T02:28:08.215Z,10.10
2023-02-24T02:29:08.225Z,10.20
2023-02-24T02:30:08.203Z,10.50
2023-02-24T02:31:08.276Z,10.70
2023-02-24T02:32:08.264Z,10.90
2023-02-24T02:33:08.176Z,11.50
2023-02-24T02:34:08.174Z,10.90
2023-02-24T02:35:08.147Z,10.70
2023-02-24T02:36:08.158Z,10.70
2023-02-24T02:37:08.144Z,10.30
2023-02-24T02:38:08.151Z,10.40
2023-02-24T02:39:08.137Z,10.40
2023-02-24T02:40:08.150Z,10.20
2023-02-24T02:41:08.139Z,10.50
2023-02-24T02:42:08.093Z,10.10
2023-02-24T02:43:08.118Z,10.40
2023-02-24T02:44:08.120Z,10.40
2023-02-24T02:45:08.097Z,10.60
2023-02-24T02:46:08.214Z,10.90
2023-02-24T02:47:08.084Z,10.80
2023-02-24T02:48:08.100Z,11.10
2023-02-24T02:49:08.070Z,10.70
2023-02-24T02:50:08.064Z,11.20
2023-02-24T02:51:08.037Z,10.90
2023-02-24T02:52:08.068Z,10.80
2023-02-24T02:53:08.039Z,11.50
2023-02-24T02:54:08.029Z,10.80
2023-02-24T02:55:08.027Z,10.70
2023-02-24T02:56:08.051Z,10.70
2023-02-24T02:57:08.012Z,10.70
2023-02-24T02:58:08.002Z,10.50
2023-02-24T02:59:08.000Z,11.30
2023-02-24T03:00:08.041Z,10.70
2023-02-24T03:01:08.009Z,10.80
2023-02-24T03:02:07.997Z,10.70
2023-02-24T03:03:07.973Z,11.60
2023-02-24T03:04:07.992Z,11.60
2023-02-24T03:05:07.951Z,11.10
2023-02-24T03:06:07.986Z,11.20
2023-02-24T03:07:07.974Z,10.80
2023-02-24T03:08:07.962Z,10.50
2023-02-24T03:09:07.986Z,11.10
2023-02-24T03:10:07.947Z,9.60
2023-02-24T03:11:07.924Z,10.20
2023-02-24T03:12:07.939Z,10.50
2023-02-24T03:13:07.910Z,10.10
2023-02-24T03:14:07.926Z,10.60
2023-02-24T03:15:07.891Z,10.00
2023-02-24T03:16:07.882Z,9.60
2023-02-24T03:17:07.890Z,10.10
2023-02-24T03:18:07.888Z,10.10
2023-02-24T03:19:07.878Z,10.60
2023-02-24T03:20:07.881Z,10.40
2023-02-24T03:21:07.923Z,10.50
2023-02-24T03:22:07.879Z,9.70
2023-02-24T03:23:07.844Z,9.80
2023-02-24T03:24:07.838Z,10.10
2023-02-24T03:25:07.843Z,10.30
2023-02-24T03:26:07.917Z,10.00
2023-02-24T03:27:07.828Z,10.10
2023-02-24T03:28:07.824Z,10.30
2023-02-24T03:29:07.813Z,9.70
2023-02-24T03:30:07.828Z,10.00
2023-02-24T03:31:07.854Z,10.50
2023-02-24T03:32:07.920Z,10.50
2023-02-24T03:33:07.818Z,10.40
2023-02-24T03:34:07.816Z,10.90
2023-02-24T03:35:07.775Z,10.50
2023-02-24T03:36:07.776Z,10.70
2023-02-24T03:37:07.787Z,10.70
2023-02-24T03:38:07.749Z,10.60
2023-02-24T03:39:07.748Z,9.80
2023-02-24T03:40:07.751Z,10.00
2023-02-24T03:41:07.749Z,10.30
2023-02-24T03:42:07.760Z,10.70
2023-02-24T03:43:07.763Z,10.20
2023-02-24T03:44:07.716Z,10.70
2023-02-24T03:45:07.703Z,10.10
2023-02-24T03:46:07.777Z,10.60
2023-02-24T03:47:07.722Z,10.10
2023-02-24T03:48:07.724Z,10.10
2023-02-24T03:49:07.693Z,10.40
2023-02-24T03:50:07.704Z,10.60
2023-02-24T03:51:07.723Z,10.10
2023-02-24T03:52:07.689Z,10.40
2023-02-24T03:53:07.674Z,10.20
2023-02-24T03:54:07.673Z,10.20
2023-02-24T03:55:07.684Z,10.10
2023-02-24T03:56:07.654Z,9.40
2023-02-24T03:57:07.651Z,9.70
2023-02-24T03:58:07.668Z,10.00
2023-02-24T03:59:07.651Z,9.80
2023-02-24T04:00:07.650Z,9.80
2023-02-24T04:01:07.661Z,10.20
2023-02-24T04:02:07.729Z,9.60
2023-02-24T04:03:07.643Z,9.80
2023-02-24T04:04:07.633Z,10.10
2023-02-24T04:05:07.646Z,10.10
2023-02-24T04:06:07.634Z,10.10
2023-02-24T04:07:07.622Z,11.00
2023-02-24T04:08:07.607Z,10.50
2023-02-24T04:09:07.589Z,10.30
2023-02-24T04:10:07.614Z,10.40
2023-02-24T04:11:07.571Z,9.90
2023-02-24T04:12:07.566Z,9.20
2023-02-24T04:13:07.597Z,9.80
2023-02-24T04:14:07.569Z,9.20
2023-02-24T04:15:07.594Z,9.60
2023-02-24T04:16:07.573Z,10.00
2023-02-24T04:17:07.546Z,9.60
2023-02-24T04:18:07.556Z,9.60
2023-02-24T04:19:07.525Z,9.70
2023-02-24T04:20:07.523Z,10.00
2023-02-24T04:21:07.543Z,9.80
2023-02-24T04:22:07.532Z,9.80
2023-02-24T04:23:07.516Z,9.50
2023-02-24T04:24:07.509Z,8.80
2023-02-24T04:25:07.502Z,9.00
2023-02-24T04:26:07.518Z,9.20
2023-02-24T04:27:07.489Z,9.30
2023-02-24T04:28:07.485Z,9.30
2023-02-24T04:29:07.484Z,8.90
2023-02-24T04:30:07.477Z,9.50
2023-02-24T04:31:07.514Z,9.50
2023-02-24T04:32:07.646Z,9.20
2023-02-24T04:33:07.452Z,9.20
2023-02-24T04:34:07.448Z,9.60
2023-02-24T04:35:07.435Z,9.60
2023-02-24T04:36:07.463Z,9.50
2023-02-24T04:37:07.442Z,8.80
2023-02-24T04:38:07.451Z,8.80
2023-02-24T04:39:07.419Z,9.30
2023-02-24T04:40:07.419Z,9.80
2023-02-24T04:41:07.435Z,9.70
2023-02-24T04:42:07.428Z,9.80
2023-02-24T04:43:07.404Z,9.20
2023-02-24T04:44:07.385Z,9.30
2023-02-24T04:45:07.386Z,9.60
2023-02-24T04:46:07.431Z,9.00
2023-02-24T04:47:07.410Z,9.40
2023-02-24T04:48:07.382Z,9.40
2023-02-24T04:49:07.386Z,9.30
2023-02-24T04:50:07.366Z,9.70
2023-02-24T04:51:07.364Z,9.10
2023-02-24T04:52:07.362Z,9.20
2023-02-24T04:53:07.379Z,9.80
2023-02-24T04:54:07.348Z,9.50
2023-02-24T04:55:07.343Z,9.40
2023-02-24T04:56:07.336Z,9.40
2023-02-24T04:57:07.330Z,9.30
2023-02-24T04:58:07.327Z,9.60
2023-02-24T04:59:07.355Z,9.50
2023-02-24T05:00:07.317Z,9.40
2023-02-24T05:01:07.310Z,9.00
2023-02-24T05:02:07.303Z,10.50
2023-02-24T05:03:07.294Z,10.10
2023-02-24T05:04:07.387Z,9.90
2023-02-24T05:05:07.284Z,10.30
2023-02-24T05:06:07.278Z,9.80
2023-02-24T05:07:07.270Z,10.00
2023-02-24T05:08:07.298Z,9.70
2023-02-24T05:09:07.322Z,9.40
2023-02-24T05:10:07.251Z,9.10
2023-02-24T05:11:07.262Z,9.30
2023-02-24T05:12:07.266Z,9.60
2023-02-24T05:13:07.241Z,9.40
2023-02-24T05:14:07.236Z,10.20
2023-02-24T05:15:07.261Z,9.70
2023-02-24T05:16:07.321Z,10.00
2023-02-24T05:17:07.246Z,10.30
2023-02-24T05:18:07.238Z,9.70
2023-02-24T05:19:07.218Z,9.20
2023-02-24T05:20:07.211Z,10.40
2023-02-24T05:21:07.213Z,10.80
2023-02-24T05:22:07.383Z,10.30
2023-02-24T05:23:07.200Z,10.50
2023-02-24T05:24:07.402Z,9.50
2023-02-24T05:25:07.177Z,10.90
2023-02-24T05:26:07.195Z,10.60
2023-02-24T05:27:07.195Z,10.70
2023-02-24T05:28:07.174Z,10.10
2023-02-24T05:29:07.264Z,10.60
2023-02-24T05:30:07.169Z,10.30
2023-02-24T05:31:07.296Z,10.20
2023-02-24T05:32:07.264Z,11.20
2023-02-24T05:33:07.137Z,11.90
2023-02-24T05:34:07.136Z,12.10
2023-02-24T05:35:07.143Z,12.10
2023-02-24T05:36:07.125Z,12.80
2023-02-24T05:37:07.125Z,13.70
2023-02-24T05:38:07.132Z,13.80
2023-02-24T05:39:07.111Z,13.30
2023-02-24T05:40:13.438Z,12.70
2023-02-24T05:41:07.100Z,12.80
2023-02-24T05:42:07.127Z,13.10
2023-02-24T05:43:07.113Z,13.50
2023-02-24T05:44:07.079Z,12.70
2023-02-24T05:45:07.081Z,13.10
2023-02-24T05:46:07.144Z,12.70
2023-02-24T05:47:07.109Z,12.60
2023-02-24T05:48:07.057Z,12.60
2023-02-24T05:49:07.046Z,12.50
2023-02-24T05:50:07.066Z,12.60
2023-02-24T05:51:07.046Z,12.20
2023-02-24T05:52:07.062Z,11.50
2023-02-24T05:53:07.023Z,12.30
2023-02-24T05:54:07.040Z,12.10
2023-02-24T05:55:07.032Z,12.00
2023-02-24T05:56:07.030Z,11.20
2023-02-24T05:57:07.045Z,11.30
2023-02-24T05:58:07.027Z,11.20
2023-02-24T05:59:07.009Z,10.50
2023-02-24T06:00:07.020Z,10.90
2023-02-24T06:01:06.996Z,11.50
2023-02-24T06:02:07.416Z,10.60
2023-02-24T06:03:07.019Z,10.00
2023-02-24T06:04:06.990Z,9.60
2023-02-24T06:05:06.998Z,9.00
2023-02-24T06:06:06.963Z,9.00
2023-02-24T06:07:06.958Z,9.20
2023-02-24T06:08:06.952Z,9.00
2023-02-24T06:09:06.978Z,8.70
2023-02-24T06:10:06.941Z,8.80
2023-02-24T06:11:06.937Z,8.30
2023-02-24T06:12:07.027Z,8.10
2023-02-24T06:13:06.926Z,8.50
2023-02-24T06:14:06.936Z,8.50
2023-02-24T06:15:06.922Z,7.90
2023-02-24T06:16:06.957Z,7.90
2023-02-24T06:17:06.922Z,8.10
2023-02-24T06:18:06.902Z,7.60
2023-02-24T06:19:06.892Z,6.50
2023-02-24T06:20:06.904Z,6.70
2023-02-24T06:21:06.905Z,6.30
2023-02-24T06:22:06.881Z,6.20
2023-02-24T06:23:06.888Z,5.40
2023-02-24T06:24:06.891Z,4.80
2023-02-24T06:25:06.854Z,4.50
2023-02-24T06:26:06.908Z,4.80
2023-02-24T06:27:06.892Z,4.40
2023-02-24T06:28:06.846Z,4.20
2023-02-24T06:29:06.848Z,4.10
2023-02-24T06:30:06.845Z,4.60
2023-02-24T06:31:06.879Z,4.40
2023-02-24T06:32:06.937Z,4.10
2023-02-24T06:33:06.844Z,4.20
2023-02-24T06:34:06.813Z,3.80
2023-02-24T06:35:06.828Z,4.50
2023-02-24T06:36:06.804Z,3.80
2023-02-24T06:37:06.865Z,3.70
2023-02-24T06:38:06.811Z,4.40
2023-02-24T06:39:06.772Z,4.20
2023-02-24T06:40:06.782Z,3.90
2023-02-24T06:41:06.781Z,3.90
2023-02-24T06:42:06.772Z,3.80
2023-02-24T06:43:06.803Z,4.10
2023-02-24T06:44:06.823Z,4.20
2023-02-24T06:45:08.038Z,3.90
2023-02-24T06:46:06.810Z,3.80
2023-02-24T06:47:06.750Z,3.90
2023-02-24T06:48:06.753Z,3.90
2023-02-24T06:49:06.722Z,3.70
2023-02-24T06:50:06.745Z,3.90
2023-02-24T06:51:06.716Z,3.80
2023-02-24T06:52:06.718Z,3.80
2023-02-24T06:53:06.724Z,3.80
2023-02-24T06:54:06.744Z,3.80
2023-02-24T06:55:06.695Z,3.60
2023-02-24T06:56:06.695Z,4.00
2023-02-24T06:57:06.690Z,3.80
2023-02-24T06:58:06.709Z,3.90
2023-02-24T06:59:06.673Z,3.90
2023-02-24T07:00:06.706Z,3.60
2023-02-24T07:01:06.709Z,3.70
2023-02-24T07:02:06.657Z,3.80
2023-02-24T07:03:06.666Z,3.50
2023-02-24T07:04:06.678Z,3.80
2023-02-24T07:05:06.670Z,3.50
2023-02-24T07:06:06.666Z,3.70
2023-02-24T07:07:06.651Z,3.60
2023-02-24T07:08:06.633Z,3.80
2023-02-24T07:09:06.620Z,4.40
2023-02-24T07:10:06.623Z,4.40
2023-02-24T07:11:06.611Z,4.30
2023-02-24T07:12:06.627Z,4.60
2023-02-24T07:13:06.639Z,15.70
2023-02-24T07:14:06.620Z,9.70
2023-02-24T07:15:06.592Z,6.20
2023-02-24T07:16:06.588Z,4.60
2023-02-24T07:17:06.596Z,4.90
2023-02-24T07:18:06.597Z,5.00
2023-02-24T07:19:06.566Z,5.60
2023-02-24T07:20:06.567Z,5.60
2023-02-24T07:21:06.562Z,6.40
2023-02-24T07:22:06.556Z,6.80
2023-02-24T07:23:06.564Z,5.90
2023-02-24T07:24:06.554Z,5.80
2023-02-24T07:25:06.539Z,5.30
2023-02-24T07:26:06.538Z,7.20
2023-02-24T07:27:06.557Z,7.00
2023-02-24T07:28:06.521Z,7.40
2023-02-24T07:29:06.587Z,7.00
2023-02-24T07:30:06.524Z,19.70
2023-02-24T07:31:06.571Z,9.70
2023-02-24T07:32:06.678Z,9.10
2023-02-24T07:33:06.527Z,8.60
2023-02-24T07:34:06.505Z,7.00
2023-02-24T07:35:06.511Z,6.90
2023-02-24T07:36:06.484Z,6.50
2023-02-24T07:37:06.494Z,5.80
2023-02-24T07:38:06.481Z,5.20
2023-02-24T07:39:06.487Z,4.70
2023-02-24T07:40:06.476Z,4.60
2023-02-24T07:41:06.471Z,4.70
2023-02-24T07:42:06.452Z,4.70
2023-02-24T07:43:06.439Z,4.20
2023-02-24T07:44:06.449Z,4.60
2023-02-24T07:45:06.450Z,4.10
2023-02-24T07:46:06.493Z,4.80
2023-02-24T07:47:06.420Z,5.30
2023-02-24T07:48:06.413Z,4.80
2023-02-24T07:49:06.402Z,5.10
2023-02-24T07:50:06.435Z,8.00
2023-02-24T07:51:06.395Z,5.40
2023-02-24T07:52:06.381Z,6.60
2023-02-24T07:53:06.406Z,6.00
2023-02-24T07:54:06.381Z,5.90
2023-02-24T07:55:06.379Z,5.20
2023-02-24T07:56:06.413Z,4.40
2023-02-24T07:57:06.376Z,4.40
2023-02-24T07:58:06.397Z,4.60
2023-02-24T07:59:06.341Z,4.40
2023-02-24T08:00:06.382Z,3.90
2023-02-24T08:01:06.326Z,4.30
2023-02-24T08:02:06.389Z,4.40
2023-02-24T08:03:06.336Z,4.80
2023-02-24T08:04:06.318Z,5.70
2023-02-24T08:05:06.355Z,4.40
2023-02-24T08:06:06.327Z,4.50
2023-02-24T08:07:06.307Z,4.30
2023-02-24T08:08:06.299Z,4.50
2023-02-24T08:09:06.296Z,4.30
2023-02-24T08:10:06.289Z,4.80
2023-02-24T08:11:06.281Z,4.90
2023-02-24T08:12:06.352Z,4.70
2023-02-24T08:13:06.270Z,5.00
2023-02-24T08:14:06.276Z,4.60
2023-02-24T08:15:06.277Z,4.60
2023-02-24T08:16:06.307Z,4.60
2023-02-24T08:17:06.265Z,4.20
2023-02-24T08:18:06.262Z,4.60
2023-02-24T08:19:06.266Z,4.10
2023-02-24T08:20:06.227Z,4.20
2023-02-24T08:21:06.247Z,4.40
2023-02-24T08:22:06.244Z,4.40
2023-02-24T08:23:06.256Z,4.40
2023-02-24T08:24:06.219Z,4.50
2023-02-24T08:25:06.279Z,4.50
2023-02-24T08:26:06.255Z,4.60
2023-02-24T08:27:06.235Z,4.40
2023-02-24T08:28:09.356Z,4.20
2023-02-24T08:29:06.179Z,4.20
2023-02-24T08:30:06.171Z,4.50
2023-02-24T08:31:06.287Z,4.90
2023-02-24T08:32:06.235Z,5.00
2023-02-24T08:33:06.159Z,4.70
2023-02-24T08:34:06.154Z,4.70
2023-02-24T08:35:06.164Z,4.00
2023-02-24T08:36:06.160Z,4.00
2023-02-24T08:37:06.175Z,4.20
2023-02-24T08:38:06.144Z,3.90
2023-02-24T08:39:06.205Z,4.20
2023-02-24T08:40:06.126Z,4.10
2023-02-24T08:41:06.116Z,4.80
2023-02-24T08:42:06.118Z,4.30
2023-02-24T08:43:06.098Z,4.10
2023-02-24T08:44:06.104Z,3.80
2023-02-24T08:45:06.122Z,4.10
2023-02-24T08:46:06.131Z,4.00
2023-02-24T08:47:06.262Z,4.50
2023-02-24T08:48:06.097Z,4.60
2023-02-24T08:49:06.100Z,4.90
2023-02-24T08:50:06.090Z,6.30
2023-02-24T08:51:06.089Z,5.00
2023-02-24T08:52:06.062Z,4.90
2023-02-24T08:53:06.084Z,4.90
2023-02-24T08:54:06.048Z,4.50
2023-02-24T08:55:06.052Z,5.00
2023-02-24T08:56:06.040Z,5.10
2023-02-24T08:57:06.026Z,4.80
2023-02-24T08:58:06.032Z,5.10
2023-02-24T08:59:06.281Z,5.50
2023-02-24T09:00:06.036Z,5.50
2023-02-24T09:01:06.080Z,5.50
2023-02-24T09:02:06.008Z,5.30
2023-02-24T09:03:06.009Z,5.20
2023-02-24T09:04:05.994Z,5.50
2023-02-24T09:05:06.128Z,6.10
2023-02-24T09:06:05.986Z,5.50
2023-02-24T09:07:11.524Z,5.30
2023-02-24T09:08:05.975Z,5.70
2023-02-24T09:09:05.969Z,5.80
2023-02-24T09:10:05.993Z,5.10
2023-02-24T09:11:06.015Z,5.60
2023-02-24T09:12:05.958Z,5.50
2023-02-24T09:13:05.958Z,5.10
2023-02-24T09:14:07.882Z,5.50
2023-02-24T09:15:05.929Z,5.60
2023-02-24T09:16:05.966Z,5.60
2023-02-24T09:17:06.401Z,5.70
2023-02-24T09:18:05.926Z,5.80
2023-02-24T09:19:05.912Z,5.60
2023-02-24T09:20:05.906Z,5.60
2023-02-24T09:21:05.879Z,5.90
2023-02-24T09:22:10.413Z,5.40
2023-02-24T09:23:06.883Z,5.60
2023-02-24T09:24:05.878Z,5.70
2023-02-24T09:25:05.863Z,5.70
2023-02-24T09:26:05.868Z,5.90
2023-02-24T09:27:05.854Z,6.10
2023-02-24T09:28:05.892Z,5.70
2023-02-24T09:29:05.832Z,5.70
2023-02-24T09:30:05.825Z,6.00
2023-02-24T09:31:05.939Z,5.90
2023-02-24T09:32:06.103Z,6.20
2023-02-24T09:33:05.975Z,5.80
2023-02-24T09:34:05.834Z,6.60
2023-02-24T09:35:05.799Z,6.40
2023-02-24T09:36:05.802Z,6.70
2023-02-24T09:37:05.813Z,6.30
2023-02-24T09:38:05.871Z,6.50
2023-02-24T09:39:05.772Z,6.00
2023-02-24T09:40:05.815Z,6.20
2023-02-24T09:41:18.465Z,6.20
2023-02-24T09:42:06.761Z,6.10
2023-02-24T09:43:05.740Z,6.30
2023-02-24T09:44:05.757Z,6.50
2023-02-24T09:45:05.739Z,5.90
2023-02-24T09:46:05.843Z,5.80
2023-02-24T09:47:05.761Z,6.10
2023-02-24T09:48:05.753Z,6.40
2023-02-24T09:49:05.730Z,6.30
2023-02-24T09:50:05.788Z,6.40
2023-02-24T09:51:05.982Z,6.10
2023-02-24T09:52:05.724Z,6.30
2023-02-24T09:53:11.126Z,6.20
2023-02-24T09:54:06.674Z,6.10
2023-02-24T09:55:05.682Z,5.70
2023-02-24T09:56:05.704Z,6.20
2023-02-24T09:57:05.702Z,6.50
2023-02-24T09:58:05.708Z,6.30
2023-02-24T09:59:05.651Z,6.60
2023-02-24T10:00:05.637Z,6.60
2023-02-24T10:01:05.704Z,6.90
2023-02-24T10:02:05.659Z,8.30
2023-02-24T10:03:05.609Z,7.30
2023-02-24T10:04:18.588Z,6.90
2023-02-24T10:05:06.603Z,6.90
2023-02-24T10:06:05.602Z,6.70
2023-02-24T10:07:05.614Z,6.90
2023-02-24T10:08:05.592Z,6.50
2023-02-24T10:09:05.578Z,6.70
2023-02-24T10:10:05.572Z,6.50
2023-02-24T10:11:05.557Z,6.90
2023-02-24T10:12:05.609Z,6.60
2023-02-24T10:13:05.585Z,6.70
2023-02-24T10:14:05.643Z,7.50
2023-02-24T10:15:05.528Z,7.10
2023-02-24T10:16:06.957Z,7.00
2023-02-24T10:17:05.545Z,6.90
2023-02-24T10:18:05.541Z,7.00
2023-02-24T10:19:05.557Z,6.80
2023-02-24T10:20:05.520Z,7.10
2023-02-24T10:21:05.561Z,7.00
2023-02-24T10:22:05.494Z,6.80
2023-02-24T10:23:05.513Z,6.40
2023-02-24T10:24:05.523Z,7.20
2023-02-24T10:25:05.489Z,6.80
2023-02-24T10:26:07.003Z,6.60
2023-02-24T10:27:08.706Z,7.30
2023-02-24T10:28:05.470Z,7.00
2023-02-24T10:29:05.466Z,7.00
2023-02-24T10:30:05.451Z,7.30
2023-02-24T10:31:05.524Z,7.10
2023-02-24T10:32:05.661Z,7.20
2023-02-24T10:33:05.462Z,6.90
2023-02-24T10:34:05.447Z,7.00
2023-02-24T10:35:05.411Z,6.90
2023-02-24T10:36:05.411Z,7.00
2023-02-24T10:37:05.396Z,6.50
2023-02-24T10:38:05.621Z,6.10
2023-02-24T10:39:05.405Z,6.30
2023-02-24T10:40:05.391Z,6.50
2023-02-24T10:41:05.379Z,6.50
2023-02-24T10:42:05.389Z,7.30
2023-02-24T10:43:05.397Z,6.80
2023-02-24T10:44:05.452Z,6.10
2023-02-24T10:45:09.721Z,5.70
2023-02-24T10:46:05.362Z,7.40
2023-02-24T10:47:05.370Z,5.80
2023-02-24T10:48:05.333Z,5.60
2023-02-24T10:49:05.330Z,5.80
2023-02-24T10:50:05.332Z,5.70
2023-02-24T10:51:05.307Z,6.00
2023-02-24T10:52:05.321Z,5.80
2023-02-24T10:53:05.309Z,5.30
2023-02-24T10:54:05.293Z,5.60
2023-02-24T10:55:05.348Z,5.50
2023-02-24T10:56:05.315Z,5.70
2023-02-24T10:57:05.279Z,5.40
2023-02-24T10:58:05.271Z,5.00
2023-02-24T10:59:05.326Z,4.80
2023-02-24T11:00:05.268Z,4.60
2023-02-24T11:01:05.286Z,4.80
2023-02-24T11:02:05.302Z,5.00
2023-02-24T11:03:05.236Z,4.80
2023-02-24T11:04:05.236Z,4.60
2023-02-24T11:05:05.278Z,4.70
2023-02-24T11:06:05.368Z,4.50
2023-02-24T11:07:05.235Z,4.40
2023-02-24T11:08:05.217Z,4.40
2023-02-24T11:09:05.245Z,4.10
2023-02-24T11:10:05.223Z,4.20
2023-02-24T11:11:05.211Z,4.20
2023-02-24T11:12:05.226Z,3.70
2023-02-24T11:13:10.131Z,4.00
2023-02-24T11:14:06.178Z,4.00
2023-02-24T11:15:05.156Z,3.30
2023-02-24T11:16:05.207Z,4.00
2023-02-24T11:17:05.168Z,4.50
2023-02-24T11:18:05.159Z,4.00
2023-02-24T11:19:05.136Z,4.20
2023-02-24T11:20:05.131Z,3.90
2023-02-24T11:21:05.135Z,4.00
2023-02-24T11:22:05.148Z,4.00
2023-02-24T11:23:05.114Z,4.00
2023-02-24T11:24:05.170Z,5.90
2023-02-24T11:25:05.161Z,4.40
2023-02-24T11:26:05.125Z,4.30
2023-02-24T11:27:05.221Z,4.10
2023-02-24T11:28:05.090Z,4.80
2023-02-24T11:29:05.088Z,4.50
2023-02-24T11:30:05.070Z,4.10
2023-02-24T11:31:05.233Z,4.60
2023-02-24T11:32:05.167Z,4.10
2023-02-24T11:33:05.088Z,4.80
2023-02-24T11:34:05.078Z,4.30
2023-02-24T11:35:05.085Z,4.50
2023-02-24T11:36:05.067Z,4.90
2023-02-24T11:37:05.038Z,4.50
2023-02-24T11:38:05.061Z,4.50
2023-02-24T11:39:17.252Z,4.30
2023-02-24T11:40:06.076Z,4.70
2023-02-24T11:41:05.028Z,4.60
2023-02-24T11:42:05.035Z,4.40
2023-02-24T11:43:05.032Z,4.70
2023-02-24T11:44:05.022Z,4.90
2023-02-24T11:45:05.009Z,4.70
2023-02-24T11:46:05.041Z,4.80
2023-02-24T11:47:04.984Z,4.80
2023-02-24T11:48:04.989Z,5.00
2023-02-24T11:49:04.981Z,5.00
2023-02-24T11:50:05.279Z,4.80
2023-02-24T11:51:04.999Z,4.80
2023-02-24T11:52:05.010Z,5.60
2023-02-24T11:53:04.947Z,5.00
2023-02-24T11:54:04.957Z,5.10
2023-02-24T11:55:04.928Z,5.10
2023-02-24T11:56:04.949Z,5.90
2023-02-24T11:57:04.938Z,5.10
2023-02-24T11:58:04.910Z,4.50
2023-02-24T11:59:04.930Z,4.60
2023-02-24T12:00:04.918Z,4.90
2023-02-24T12:01:04.934Z,5.30
2023-02-24T12:02:04.939Z,5.20
2023-02-24T12:03:04.957Z,4.70
2023-02-24T12:04:04.883Z,4.60
2023-02-24T12:05:04.875Z,5.00
2023-02-24T12:06:04.907Z,5.00
2023-02-24T12:07:06.750Z,4.90
2023-02-24T12:08:04.865Z,4.90
2023-02-24T12:09:04.879Z,4.60
2023-02-24T12:10:16.236Z,5.20
2023-02-24T12:11:05.848Z,4.40
2023-02-24T12:12:04.841Z,4.70
2023-02-24T12:13:04.870Z,4.50
2023-02-24T12:14:04.847Z,4.60
2023-02-24T12:15:04.825Z,4.10
2023-02-24T12:16:04.861Z,4.50
2023-02-24T12:17:04.816Z,4.00
2023-02-24T12:18:04.838Z,3.90
2023-02-24T12:19:04.800Z,4.20
2023-02-24T12:20:04.792Z,5.20
2023-02-24T12:21:04.789Z,5.30
2023-02-24T12:22:04.792Z,4.20
2023-02-24T12:23:04.777Z,4.10
2023-02-24T12:24:06.283Z,3.70
2023-02-24T12:25:04.844Z,3.60
2023-02-24T12:26:04.810Z,3.20
2023-02-24T12:27:04.772Z,3.50
2023-02-24T12:28:04.763Z,4.00
2023-02-24T12:29:04.764Z,4.10
2023-02-24T12:30:04.764Z,3.90
2023-02-24T12:31:04.897Z,3.40
2023-02-24T12:32:04.912Z,3.50
2023-02-24T12:33:04.752Z,3.50
2023-02-24T12:34:04.721Z,3.90
2023-02-24T12:35:04.724Z,3.80
2023-02-24T12:36:04.727Z,3.90
2023-02-24T12:37:04.715Z,3.80
2023-02-24T12:38:04.784Z,3.90
2023-02-24T12:39:04.693Z,4.00
2023-02-24T12:40:04.680Z,3.60
2023-02-24T12:41:04.727Z,3.50
2023-02-24T12:42:04.680Z,4.00
2023-02-24T12:43:04.663Z,3.90
2023-02-24T12:44:04.711Z,3.50
2023-02-24T12:45:04.645Z,4.30
2023-02-24T12:46:04.734Z,3.80
2023-02-24T12:47:04.671Z,3.40
2023-02-24T12:48:04.637Z,3.40
2023-02-24T12:49:04.664Z,3.50
2023-02-24T12:50:04.620Z,3.50
2023-02-24T12:51:04.608Z,3.80
2023-02-24T12:52:04.620Z,4.40
2023-02-24T12:53:04.639Z,4.30
2023-02-24T12:54:04.619Z,4.80
2023-02-24T12:55:04.586Z,3.80
2023-02-24T12:56:04.603Z,3.80
2023-02-24T12:57:04.600Z,4.40
2023-02-24T12:58:04.581Z,4.20
2023-02-24T12:59:04.621Z,4.10
2023-02-24T13:00:04.555Z,4.10
2023-02-24T13:01:04.574Z,4.30
2023-02-24T13:02:04.634Z,4.40
2023-02-24T13:03:04.553Z,4.60
2023-02-24T13:04:04.540Z,4.20
2023-02-24T13:05:04.531Z,5.70
2023-02-24T13:06:04.534Z,5.10
2023-02-24T13:07:04.522Z,4.80
2023-02-24T13:08:04.558Z,5.10